Time,TemperatureF,DewpointF,PressureIn,WindDirection,WindDirectionDegrees,WindSpeedMPH,WindSpeedGustMPH,Humidity,HourlyPrecipIn,Conditions,Clouds,dailyrainin,SoftwareType,DateUTC
2013-11-14 00:03:00,41.9,27.4,0.00,South,180,2.2,2.5,56,0.00,,---,0.00,VWS V14.01,2013-11-14 06:03:00,
2013-11-14 00:08:00,41.7,27.6,0.00,SSE,158,2.9,3.4,57,0.00,,---,0.00,VWS V14.01,2013-11-14 06:08:00,
2013-11-14 00:13:00,41.7,28.1,0.00,South,180,2.9,3.8,58,0.00,,---,0.00,VWS V14.01,2013-11-14 06:13:00,
2013-11-14 00:18:00,42.1,28.4,0.00,SW,225,2.0,3.4,58,0.00,,---,0.00,VWS V14.01,2013-11-14 06:18:00,
2013-11-14 00:23:00,42.6,28.9,0.00,West,270,2.5,3.6,58,0.00,,---,0.00,VWS V14.01,2013-11-14 06:23:00,
2013-11-14 00:28:00,42.3,28.6,0.00,West,270,1.1,3.6,58,0.00,,---,0.00,VWS V14.01,2013-11-14 06:28:00,
2013-11-14 00:33:00,41.9,28.2,0.00,West,270,2.0,2.0,58,0.00,,---,0.00,VWS V14.01,2013-11-14 06:33:00,
2013-11-14 00:38:00,41.9,28.2,0.00,WNW,292,2.2,2.7,58,0.00,,---,0.00,VWS V14.01,2013-11-14 06:38:00,
2013-11-14 00:43:00,42.1,28.4,0.00,West,270,3.1,3.1,58,0.00,,---,0.00,VWS V14.01,2013-11-14 06:43:00,
2013-11-14 00:48:00,42.1,28.4,0.00,NW,315,0.0,2.0,58,0.00,,---,0.00,VWS V14.01,2013-11-14 06:48:00,
2013-11-14 00:53:00,41.9,27.8,0.00,WNW,292,0.0,3.1,57,0.00,,---,0.00,VWS V14.01,2013-11-14 06:53:00,
2013-11-14 00:58:00,41.7,27.6,0.00,WNW,292,1.3,3.1,57,0.00,,---,0.00,VWS V14.01,2013-11-14 06:58:00,
2013-11-14 01:03:00,41.6,27.5,0.00,West,270,1.1,2.2,57,0.00,,---,0.00,VWS V14.01,2013-11-14 07:03:00,
2013-11-14 01:08:00,41.9,28.2,0.00,West,270,0.0,3.4,58,0.00,,---,0.00,VWS V14.01,2013-11-14 07:08:00,
2013-11-14 01:13:00,41.7,28.1,0.00,NW,315,0.0,3.4,58,0.00,,---,0.00,VWS V14.01,2013-11-14 07:13:00,
2013-11-14 01:18:00,40.8,27.2,0.00,West,270,2.5,6.0,58,0.00,,---,0.00,VWS V14.01,2013-11-14 07:18:00,
2013-11-14 01:23:00,41.0,27.8,0.00,WSW,248,2.7,6.0,59,0.00,,---,0.00,VWS V14.01,2013-11-14 07:23:00,
2013-11-14 01:28:00,41.4,27.7,0.00,West,270,1.1,6.0,58,0.00,,---,0.00,VWS V14.01,2013-11-14 07:28:00,
2013-11-14 01:33:00,41.4,27.7,0.00,WSW,248,0.0,1.3,58,0.00,,---,0.00,VWS V14.01,2013-11-14 07:33:00,
2013-11-14 01:38:00,40.8,27.2,0.00,WSW,248,1.6,1.6,58,0.00,,---,0.00,VWS V14.01,2013-11-14 07:38:00,
2013-11-14 01:43:00,40.8,27.6,0.00,WNW,292,3.4,3.4,59,0.00,,---,0.00,VWS V14.01,2013-11-14 07:43:00,
2013-11-14 01:48:00,40.8,27.6,0.00,NNW,338,0.0,2.5,59,0.00,,---,0.00,VWS V14.01,2013-11-14 07:48:00,
2013-11-14 01:53:00,40.8,27.6,0.00,NW,315,2.2,2.9,59,0.00,,---,0.00,VWS V14.01,2013-11-14 07:53:00,
2013-11-14 01:58:00,40.8,27.6,0.00,NW,315,2.2,2.9,59,0.00,,---,0.00,VWS V14.01,2013-11-14 07:58:00,
2013-11-14 02:03:00,40.8,27.6,0.00,West,270,2.0,2.5,59,0.00,,---,0.00,VWS V14.01,2013-11-14 08:03:00,
2013-11-14 02:08:00,41.0,27.8,0.00,West,270,0.0,2.9,59,0.00,,---,0.00,VWS V14.01,2013-11-14 08:08:00,
2013-11-14 02:13:00,41.0,27.8,0.00,West,270,0.0,2.9,59,0.00,,---,0.00,VWS V14.01,2013-11-14 08:13:00,
2013-11-14 02:18:00,41.2,27.6,0.00,West,270,1.6,2.5,58,0.00,,---,0.00,VWS V14.01,2013-11-14 08:18:00,
2013-11-14 02:23:00,41.2,28.0,0.00,WNW,292,2.9,3.8,59,0.00,,---,0.00,VWS V14.01,2013-11-14 08:23:00,
2013-11-14 02:28:00,41.0,27.4,0.00,NW,315,2.9,3.8,58,0.00,,---,0.00,VWS V14.01,2013-11-14 08:28:00,
2013-11-14 02:33:00,41.0,27.8,0.00,WNW,292,3.4,4.3,59,0.00,,---,0.00,VWS V14.01,2013-11-14 08:33:00,
2013-11-14 02:38:00,40.8,27.6,0.00,NW,315,3.6,5.8,59,0.00,,---,0.00,VWS V14.01,2013-11-14 08:38:00,
2013-11-14 02:43:00,40.7,27.5,0.00,NW,315,3.1,6.5,59,0.00,,---,0.00,VWS V14.01,2013-11-14 08:43:00,
2013-11-14 02:48:00,40.3,27.1,0.00,West,270,2.2,5.4,59,0.00,,---,0.00,VWS V14.01,2013-11-14 08:48:00,
2013-11-14 02:53:00,40.1,27.4,0.00,NW,315,2.9,5.4,60,0.00,,---,0.00,VWS V14.01,2013-11-14 08:53:00,
2013-11-14 02:58:00,39.6,26.9,0.00,WNW,292,2.5,5.4,60,0.00,,---,0.00,VWS V14.01,2013-11-14 08:58:00,
2013-11-14 03:03:00,39.4,27.1,0.00,NNW,338,3.6,3.6,61,0.00,,---,0.00,VWS V14.01,2013-11-14 09:03:00,
2013-11-14 03:08:00,39.2,26.9,0.00,NW,315,1.1,3.6,61,0.00,,---,0.00,VWS V14.01,2013-11-14 09:08:00,
2013-11-14 03:13:00,39.0,27.1,0.00,North,0,0.0,3.6,62,0.00,,---,0.00,VWS V14.01,2013-11-14 09:13:00,
2013-11-14 03:18:00,38.9,27.0,0.00,NW,315,0.0,2.0,62,0.00,,---,0.00,VWS V14.01,2013-11-14 09:18:00,
2013-11-14 03:23:00,38.7,26.8,0.00,North,0,2.5,2.7,62,0.00,,---,0.00,VWS V14.01,2013-11-14 09:23:00,
2013-11-14 03:28:00,38.7,26.8,0.00,North,0,2.7,2.7,62,0.00,,---,0.00,VWS V14.01,2013-11-14 09:28:00,
2013-11-14 03:33:00,38.5,27.0,0.00,NW,315,0.0,2.9,63,0.00,,---,0.00,VWS V14.01,2013-11-14 09:33:00,
2013-11-14 03:38:00,38.5,26.6,0.00,NW,315,0.0,2.9,62,0.00,,---,0.00,VWS V14.01,2013-11-14 09:38:00,
2013-11-14 03:43:00,38.3,26.5,0.00,NW,315,0.0,2.9,62,0.00,,---,0.00,VWS V14.01,2013-11-14 09:43:00,
2013-11-14 03:48:00,38.1,26.3,0.00,NW,315,0.0,0.0,62,0.00,,---,0.00,VWS V14.01,2013-11-14 09:48:00,
2013-11-14 03:53:00,38.3,26.5,0.00,NW,315,1.6,1.6,62,0.00,,---,0.00,VWS V14.01,2013-11-14 09:53:00,
2013-11-14 03:58:00,38.9,27.4,0.00,SW,225,1.6,2.2,63,0.00,,---,0.00,VWS V14.01,2013-11-14 09:58:00,
2013-11-14 04:03:00,38.9,27.7,0.00,SW,225,3.4,3.4,64,0.00,,---,0.00,VWS V14.01,2013-11-14 10:03:00,
2013-11-14 04:08:00,38.5,27.4,0.00,SE,135,0.0,3.4,64,0.00,,---,0.00,VWS V14.01,2013-11-14 10:08:00,
2013-11-14 04:13:00,38.7,27.2,0.00,SE,135,0.9,3.4,63,0.00,,---,0.00,VWS V14.01,2013-11-14 10:13:00,
2013-11-14 04:18:00,38.9,27.7,0.00,SE,135,2.7,2.9,64,0.00,,---,0.00,VWS V14.01,2013-11-14 10:18:00,
2013-11-14 04:23:00,38.9,27.7,0.00,SE,135,2.0,2.9,64,0.00,,---,0.00,VWS V14.01,2013-11-14 10:23:00,
2013-11-14 04:28:00,39.0,27.5,0.00,SE,135,0.0,2.9,63,0.00,,---,0.00,VWS V14.01,2013-11-14 10:28:00,
2013-11-14 04:33:00,39.4,27.9,0.00,North,0,2.5,3.8,63,0.00,,---,0.00,VWS V14.01,2013-11-14 10:33:00,
2013-11-14 04:38:00,39.4,27.9,0.00,North,0,3.4,3.8,63,0.00,,---,0.00,VWS V14.01,2013-11-14 10:38:00,
2013-11-14 04:43:00,43.9,32.1,0.00,NW,315,10.7,11.0,63,0.00,,---,0.00,VWS V14.01,2013-11-14 10:43:00,
2013-11-14 04:48:00,46.2,31.9,0.00,NW,315,12.5,12.5,57,0.00,,---,0.00,VWS V14.01,2013-11-14 10:48:00,
2013-11-14 04:53:00,48.6,31.8,0.00,NW,315,7.8,14.1,52,0.00,,---,0.00,VWS V14.01,2013-11-14 10:53:00,
2013-11-14 04:58:00,49.3,32.0,0.00,NW,315,8.5,14.5,51,0.00,,---,0.00,VWS V14.01,2013-11-14 10:58:00,
2013-11-14 05:03:00,49.7,31.8,0.00,NW,315,13.2,14.5,50,0.00,,---,0.00,VWS V14.01,2013-11-14 11:03:00,
2013-11-14 05:08:00,50.0,31.6,0.00,NW,315,13.2,15.2,49,0.00,,---,0.00,VWS V14.01,2013-11-14 11:08:00,
2013-11-14 05:13:00,50.2,31.3,0.00,NW,315,12.8,16.3,48,0.00,,---,0.00,VWS V14.01,2013-11-14 11:13:00,
2013-11-14 05:18:00,50.4,31.5,0.00,NNW,338,10.7,19.2,48,0.00,,---,0.00,VWS V14.01,2013-11-14 11:18:00,
2013-11-14 05:23:00,50.4,31.5,0.00,NW,315,12.8,19.2,48,0.00,,---,0.00,VWS V14.01,2013-11-14 11:23:00,
2013-11-14 05:28:00,50.2,31.3,0.00,NW,315,10.1,19.2,48,0.00,,---,0.00,VWS V14.01,2013-11-14 11:28:00,
2013-11-14 05:33:00,50.0,31.6,0.00,NNW,338,12.3,12.3,49,0.00,,---,0.00,VWS V14.01,2013-11-14 11:33:00,
2013-11-14 05:38:00,50.0,31.1,0.00,NNW,338,11.0,13.0,48,0.00,,---,0.00,VWS V14.01,2013-11-14 11:38:00,
2013-11-14 05:43:00,49.8,31.5,0.00,North,0,9.8,13.9,49,0.00,,---,0.00,VWS V14.01,2013-11-14 11:43:00,
2013-11-14 05:48:00,49.7,31.3,0.00,NNW,338,7.8,13.2,49,0.00,,---,0.00,VWS V14.01,2013-11-14 11:48:00,
2013-11-14 05:53:00,49.3,31.0,0.00,North,0,14.8,14.8,49,0.00,,---,0.00,VWS V14.01,2013-11-14 11:53:00,
2013-11-14 05:58:00,49.3,31.0,0.00,NW,315,13.2,19.0,49,0.00,,---,0.00,VWS V14.01,2013-11-14 11:58:00,
2013-11-14 06:03:00,49.1,30.8,0.00,North,0,15.2,16.1,49,0.00,,---,0.00,VWS V14.01,2013-11-14 12:03:00,
2013-11-14 06:08:00,48.9,30.6,0.00,NW,315,14.3,17.7,49,0.00,,---,0.00,VWS V14.01,2013-11-14 12:08:00,
2013-11-14 06:13:00,48.8,30.5,0.00,NW,315,14.3,17.7,49,0.00,,---,0.00,VWS V14.01,2013-11-14 12:13:00,
2013-11-14 06:18:00,48.6,30.3,0.00,North,0,12.3,15.9,49,0.00,,---,0.00,VWS V14.01,2013-11-14 12:18:00,
2013-11-14 06:23:00,48.4,30.6,0.00,North,0,9.8,17.2,50,0.00,,---,0.00,VWS V14.01,2013-11-14 12:23:00,
2013-11-14 06:28:00,48.0,30.3,0.00,NW,315,17.2,17.2,50,0.00,,---,0.00,VWS V14.01,2013-11-14 12:28:00,
2013-11-14 06:33:00,47.5,30.3,0.00,North,0,10.3,12.8,51,0.00,,---,0.00,VWS V14.01,2013-11-14 12:33:00,
2013-11-14 06:38:00,47.1,30.0,0.00,North,0,9.8,16.8,51,0.00,,---,0.00,VWS V14.01,2013-11-14 12:38:00,
2013-11-14 06:43:00,46.8,30.1,0.00,NW,315,10.5,16.8,52,0.00,,---,0.00,VWS V14.01,2013-11-14 12:43:00,
2013-11-14 06:48:00,46.6,30.4,0.00,North,0,9.2,12.5,53,0.00,,---,0.00,VWS V14.01,2013-11-14 12:48:00,
2013-11-14 06:53:00,46.1,30.4,0.00,North,0,8.1,12.5,54,0.00,,---,0.00,VWS V14.01,2013-11-14 12:53:00,
2013-11-14 06:58:00,45.7,30.5,0.00,NW,315,6.0,12.5,55,0.00,,---,0.00,VWS V14.01,2013-11-14 12:58:00,
2013-11-14 07:03:00,45.7,30.9,0.00,North,0,8.1,11.0,56,0.00,,---,0.00,VWS V14.01,2013-11-14 13:03:00,
2013-11-14 07:08:00,45.5,31.2,0.00,North,0,7.2,11.0,57,0.00,,---,0.00,VWS V14.01,2013-11-14 13:08:00,
2013-11-14 07:13:00,45.3,31.0,0.00,North,0,6.3,11.0,57,0.00,,---,0.00,VWS V14.01,2013-11-14 13:13:00,
2013-11-14 07:18:00,45.0,31.1,0.00,NNW,338,4.3,6.0,58,0.00,,---,0.00,VWS V14.01,2013-11-14 13:18:00,
2013-11-14 07:23:00,44.8,31.4,0.00,NNW,338,6.3,6.3,59,0.00,,---,0.00,VWS V14.01,2013-11-14 13:23:00,
2013-11-14 07:28:00,44.8,31.4,0.00,North,0,8.7,9.4,59,0.00,,---,0.00,VWS V14.01,2013-11-14 13:28:00,
2013-11-14 07:33:00,45.0,32.0,0.00,NW,315,7.4,9.8,60,0.00,,---,0.00,VWS V14.01,2013-11-14 13:33:00,
2013-11-14 07:38:00,45.2,32.1,0.00,North,0,8.1,9.8,60,0.00,,---,0.00,VWS V14.01,2013-11-14 13:38:00,
2013-11-14 07:43:00,45.7,33.0,0.00,NNW,338,6.5,12.3,61,0.00,,---,0.00,VWS V14.01,2013-11-14 13:43:00,
2013-11-14 07:46:00,50.9,36.7,0.00,North,0,15.9,15.9,58,0.00,,---,0.00,VWS V14.01,2013-11-14 13:46:00,
2013-11-14 07:47:00,50.9,36.7,0.00,North,0,12.5,15.9,58,0.00,,---,0.00,VWS V14.01,2013-11-14 13:47:00,
2013-11-14 07:48:00,46.2,33.1,0.00,North,0,9.0,10.5,60,0.00,,---,0.00,VWS V14.01,2013-11-14 13:48:00,
2013-11-14 07:49:00,51.3,36.6,0.00,North,0,12.5,17.2,57,0.00,,---,0.00,VWS V14.01,2013-11-14 13:49:00,
2013-11-14 07:50:00,51.5,36.8,0.00,North,0,18.1,18.1,57,0.00,,---,0.00,VWS V14.01,2013-11-14 13:50:00,
2013-11-14 07:53:00,46.6,33.0,0.00,North,0,10.1,10.7,59,0.00,,---,0.00,VWS V14.01,2013-11-14 13:53:00,
2013-11-14 07:58:00,47.5,33.5,0.00,NNW,338,7.4,12.1,58,0.00,,---,0.00,VWS V14.01,2013-11-14 13:58:00,
2013-11-14 08:03:00,48.2,33.7,0.00,North,0,14.8,14.8,57,0.00,,---,0.00,VWS V14.01,2013-11-14 14:03:00,
2013-11-14 08:08:00,48.4,33.9,0.00,North,0,10.3,15.9,57,0.00,,---,0.00,VWS V14.01,2013-11-14 14:08:00,
2013-11-14 08:13:00,49.3,33.8,0.00,NNW,338,12.3,15.9,55,0.00,,---,0.00,VWS V14.01,2013-11-14 14:13:00,
2013-11-14 08:18:00,49.7,34.2,0.00,North,0,13.6,13.6,55,0.00,,---,0.00,VWS V14.01,2013-11-14 14:18:00,
2013-11-14 08:23:00,49.3,34.3,0.00,North,0,13.4,14.8,56,0.00,,---,0.00,VWS V14.01,2013-11-14 14:23:00,
2013-11-14 08:28:00,48.9,34.0,0.00,North,0,9.2,16.8,56,0.00,,---,0.00,VWS V14.01,2013-11-14 14:28:00,
2013-11-14 08:33:00,48.9,34.8,0.00,North,0,10.3,13.4,58,0.00,,---,0.00,VWS V14.01,2013-11-14 14:33:00,
2013-11-14 08:38:00,49.3,35.2,0.00,North,0,8.1,13.4,58,0.00,,---,0.00,VWS V14.01,2013-11-14 14:38:00,
2013-11-14 08:43:00,50.2,36.0,0.00,North,0,10.1,13.4,58,0.00,,---,0.00,VWS V14.01,2013-11-14 14:43:00,
2013-11-14 08:48:00,51.1,36.4,0.00,North,0,12.5,15.9,57,0.00,,---,0.00,VWS V14.01,2013-11-14 14:48:00,
2013-11-14 08:53:00,51.8,36.6,0.00,NNE,22,13.2,19.5,56,0.00,,---,0.00,VWS V14.01,2013-11-14 14:53:00,
2013-11-14 08:58:00,52.2,36.5,0.00,North,0,13.0,19.5,55,0.00,,---,0.00,VWS V14.01,2013-11-14 14:58:00,
2013-11-14 09:03:00,52.2,36.5,0.00,NW,315,12.8,17.7,55,0.00,,---,0.00,VWS V14.01,2013-11-14 15:03:00,
2013-11-14 09:08:00,52.2,36.5,0.00,North,0,10.1,19.0,55,0.00,,---,0.00,VWS V14.01,2013-11-14 15:08:00,
2013-11-14 09:13:00,52.7,37.0,0.00,NNW,338,17.7,19.0,55,0.00,,---,0.00,VWS V14.01,2013-11-14 15:13:00,
2013-11-14 09:17:00,52.7,37.0,0.00,North,0,13.0,19.9,55,0.00,,---,0.00,VWS V14.01,2013-11-14 15:17:00,
2013-11-14 09:22:00,53.6,37.9,0.00,North,0,17.2,19.9,55,0.00,,---,0.00,VWS V14.01,2013-11-14 15:22:00,
2013-11-14 09:27:00,54.3,37.6,0.00,North,0,19.7,22.6,53,0.00,,---,0.00,VWS V14.01,2013-11-14 15:27:00,
2013-11-14 09:32:00,55.1,37.8,0.00,North,0,19.9,19.9,52,0.00,,---,0.00,VWS V14.01,2013-11-14 15:32:00,
2013-11-14 09:37:00,56.0,38.1,0.00,North,0,16.1,19.9,51,0.00,,---,0.00,VWS V14.01,2013-11-14 15:37:00,
2013-11-14 09:42:00,55.6,37.3,0.00,North,0,12.5,21.0,50,0.00,,---,0.00,VWS V14.01,2013-11-14 15:42:00,
2013-11-14 09:47:00,54.0,36.8,0.00,North,0,12.3,16.1,52,0.00,,---,0.00,VWS V14.01,2013-11-14 15:47:00,
2013-11-14 09:52:00,53.1,36.4,0.00,North,0,13.2,17.0,53,0.00,,---,0.00,VWS V14.01,2013-11-14 15:52:00,
2013-11-14 09:57:00,52.7,36.6,0.00,North,0,11.9,17.0,54,0.00,,---,0.00,VWS V14.01,2013-11-14 15:57:00,
2013-11-14 10:02:00,53.3,37.5,0.00,North,0,5.8,15.4,55,0.00,,---,0.00,VWS V14.01,2013-11-14 16:02:00,
2013-11-14 10:07:00,53.3,37.1,0.00,North,0,12.8,17.2,54,0.00,,---,0.00,VWS V14.01,2013-11-14 16:07:00,
2013-11-14 10:12:00,52.9,37.2,0.00,North,0,7.4,17.2,55,0.00,,---,0.00,VWS V14.01,2013-11-14 16:12:00,
2013-11-14 10:17:00,53.3,37.5,0.00,North,0,12.8,15.4,55,0.00,,---,0.00,VWS V14.01,2013-11-14 16:17:00,
2013-11-14 10:22:00,54.5,38.2,0.00,North,0,10.3,15.4,54,0.00,,---,0.00,VWS V14.01,2013-11-14 16:22:00,
2013-11-14 10:27:00,55.6,38.3,0.00,North,0,15.2,15.9,52,0.00,,---,0.00,VWS V14.01,2013-11-14 16:27:00,
2013-11-14 10:32:00,55.4,38.1,0.00,North,0,9.4,12.8,52,0.00,,---,0.00,VWS V14.01,2013-11-14 16:32:00,
2013-11-14 10:37:00,55.2,37.9,0.00,North,0,13.0,15.4,52,0.00,,---,0.00,VWS V14.01,2013-11-14 16:37:00,
2013-11-14 10:42:00,55.6,38.3,0.00,NNE,22,8.7,15.4,52,0.00,,---,0.00,VWS V14.01,2013-11-14 16:42:00,
2013-11-14 10:47:00,56.0,38.1,0.00,NNE,22,9.8,12.5,51,0.00,,---,0.00,VWS V14.01,2013-11-14 16:47:00,
2013-11-14 10:52:00,57.0,38.6,0.00,North,0,10.7,13.2,50,0.00,,---,0.00,VWS V14.01,2013-11-14 16:52:00,
2013-11-14 10:57:00,57.9,39.4,0.00,North,0,12.3,14.8,50,0.00,,---,0.00,VWS V14.01,2013-11-14 16:57:00,
2013-11-14 11:02:00,58.1,39.1,0.00,NNE,22,10.5,14.8,49,0.00,,---,0.00,VWS V14.01,2013-11-14 17:02:00,
2013-11-14 11:07:00,58.7,39.0,0.00,NE,45,7.4,14.8,48,0.00,,---,0.00,VWS V14.01,2013-11-14 17:07:00,
2013-11-14 11:12:00,58.7,39.0,0.00,NNE,22,11.2,15.4,48,0.00,,---,0.00,VWS V14.01,2013-11-14 17:12:00,
2013-11-14 11:17:00,58.8,39.2,0.00,North,0,12.8,13.2,48,0.00,,---,0.00,VWS V14.01,2013-11-14 17:17:00,
2013-11-14 11:22:00,58.8,38.7,0.00,North,0,8.5,13.6,47,0.00,,---,0.00,VWS V14.01,2013-11-14 17:22:00,
2013-11-14 11:27:00,59.0,38.8,0.00,North,0,8.5,13.6,47,0.00,,---,0.00,VWS V14.01,2013-11-14 17:27:00,
2013-11-14 11:32:00,59.6,39.3,0.00,North,0,10.5,13.9,47,0.00,,---,0.00,VWS V14.01,2013-11-14 17:32:00,
2013-11-14 11:37:00,60.5,40.2,0.00,NNE,22,5.6,13.9,47,0.00,,---,0.00,VWS V14.01,2013-11-14 17:37:00,
2013-11-14 11:42:00,60.6,39.8,0.00,NNE,22,9.6,13.9,46,0.00,,---,0.00,VWS V14.01,2013-11-14 17:42:00,
2013-11-14 11:47:00,60.8,39.9,0.00,North,0,5.6,10.3,46,0.00,,---,0.00,VWS V14.01,2013-11-14 17:47:00,
2013-11-14 11:52:00,60.8,39.9,0.00,NNE,22,10.1,14.3,46,0.00,,---,0.00,VWS V14.01,2013-11-14 17:52:00,
2013-11-14 11:57:00,61.4,39.9,0.00,North,0,13.2,14.3,45,0.00,,---,0.00,VWS V14.01,2013-11-14 17:57:00,
2013-11-14 12:02:00,61.5,39.4,0.00,North,0,12.1,12.1,44,0.00,,---,0.00,VWS V14.01,2013-11-14 18:02:00,
2013-11-14 12:07:00,61.5,39.4,0.00,North,0,8.7,13.2,44,0.00,,---,0.00,VWS V14.01,2013-11-14 18:07:00,
2013-11-14 12:12:00,61.5,39.4,0.00,North,0,6.5,13.2,44,0.00,,---,0.00,VWS V14.01,2013-11-14 18:12:00,
2013-11-14 12:17:00,61.7,39.6,0.00,NNE,22,6.0,9.8,44,0.00,,---,0.00,VWS V14.01,2013-11-14 18:17:00,
2013-11-14 12:22:00,61.7,39.6,0.00,North,0,10.1,12.5,44,0.00,,---,0.00,VWS V14.01,2013-11-14 18:22:00,
2013-11-14 12:27:00,62.1,39.3,0.00,North,0,9.2,12.5,43,0.00,,---,0.00,VWS V14.01,2013-11-14 18:27:00,
2013-11-14 12:32:00,62.4,39.7,0.00,NW,315,5.8,10.3,43,0.00,,---,0.00,VWS V14.01,2013-11-14 18:32:00,
2013-11-14 12:37:00,63.3,39.9,0.00,NW,315,6.7,10.7,42,0.00,,---,0.00,VWS V14.01,2013-11-14 18:37:00,
2013-11-14 12:42:00,63.3,39.9,0.00,NW,315,11.0,11.0,42,0.00,,---,0.00,VWS V14.01,2013-11-14 18:42:00,
2013-11-14 12:47:00,63.3,39.9,0.00,North,0,5.6,8.7,42,0.00,,---,0.00,VWS V14.01,2013-11-14 18:47:00,
2013-11-14 12:52:00,63.5,40.0,0.00,North,0,2.9,13.2,42,0.00,,---,0.00,VWS V14.01,2013-11-14 18:52:00,
2013-11-14 12:57:00,64.1,40.5,0.00,NNW,338,8.1,13.2,42,0.00,,---,0.00,VWS V14.01,2013-11-14 18:57:00,
2013-11-14 13:02:00,63.9,39.7,0.00,North,0,5.6,9.0,41,0.00,,---,0.00,VWS V14.01,2013-11-14 19:02:00,
2013-11-14 13:07:00,64.2,40.1,0.00,NNE,22,5.6,9.0,41,0.00,,---,0.00,VWS V14.01,2013-11-14 19:07:00,
2013-11-14 13:12:00,65.0,40.1,0.00,NW,315,2.9,11.0,40,0.00,,---,0.00,VWS V14.01,2013-11-14 19:12:00,
2013-11-14 13:17:00,65.9,40.9,0.00,North,0,7.6,7.6,40,0.00,,---,0.00,VWS V14.01,2013-11-14 19:17:00,
2013-11-14 13:22:00,65.5,40.6,0.00,North,0,4.0,10.3,40,0.00,,---,0.00,VWS V14.01,2013-11-14 19:22:00,
2013-11-14 13:27:00,65.7,40.1,0.00,North,0,2.9,10.3,39,0.00,,---,0.00,VWS V14.01,2013-11-14 19:27:00,
2013-11-14 13:32:00,66.2,40.5,0.00,North,0,5.4,6.5,39,0.00,,---,0.00,VWS V14.01,2013-11-14 19:32:00,
2013-11-14 13:37:00,65.7,39.4,0.00,North,0,6.5,8.5,38,0.00,,---,0.00,VWS V14.01,2013-11-14 19:37:00,
2013-11-14 13:42:00,66.8,40.4,0.00,NE,45,2.9,8.5,38,0.00,,---,0.00,VWS V14.01,2013-11-14 19:42:00,
2013-11-14 13:47:00,66.8,40.4,0.00,NE,45,5.4,10.5,38,0.00,,---,0.00,VWS V14.01,2013-11-14 19:47:00,
2013-11-14 13:52:00,67.5,41.0,0.00,NE,45,4.0,10.5,38,0.00,,---,0.00,VWS V14.01,2013-11-14 19:52:00,
2013-11-14 13:57:00,67.7,41.2,0.00,NE,45,1.6,10.5,38,0.00,,---,0.00,VWS V14.01,2013-11-14 19:57:00,
2013-11-14 14:02:00,65.7,39.4,0.00,North,0,7.6,10.5,38,0.00,,---,0.00,VWS V14.01,2013-11-14 20:02:00,
2013-11-14 14:07:00,65.9,39.6,0.00,NW,315,8.7,10.5,38,0.00,,---,0.00,VWS V14.01,2013-11-14 20:07:00,
2013-11-14 14:12:00,66.2,39.9,0.00,NW,315,2.2,10.5,38,0.00,,---,0.00,VWS V14.01,2013-11-14 20:12:00,
2013-11-14 14:17:00,66.8,39.7,0.00,NNE,22,3.6,6.5,37,0.00,,---,0.00,VWS V14.01,2013-11-14 20:17:00,
2013-11-14 14:22:00,67.1,40.0,0.00,NNW,338,6.0,7.6,37,0.00,,---,0.00,VWS V14.01,2013-11-14 20:22:00,
2013-11-14 14:27:00,66.8,39.7,0.00,North,0,3.1,7.6,37,0.00,,---,0.00,VWS V14.01,2013-11-14 20:27:00,
2013-11-14 14:32:00,67.3,40.2,0.00,North,0,3.8,4.0,37,0.00,,---,0.00,VWS V14.01,2013-11-14 20:32:00,
2013-11-14 14:37:00,68.2,40.2,0.00,NE,45,4.7,8.1,36,0.00,,---,0.00,VWS V14.01,2013-11-14 20:37:00,
2013-11-14 14:42:00,68.2,40.2,0.00,NE,45,3.6,8.1,36,0.00,,---,0.00,VWS V14.01,2013-11-14 20:42:00,
2013-11-14 14:47:00,66.6,38.8,0.00,North,0,7.6,10.7,36,0.00,,---,0.00,VWS V14.01,2013-11-14 20:47:00,
2013-11-14 14:52:00,66.4,38.7,0.00,NE,45,3.8,10.7,36,0.00,,---,0.00,VWS V14.01,2013-11-14 20:52:00,
2013-11-14 14:57:00,67.7,39.8,0.00,NW,315,5.4,10.7,36,0.00,,---,0.00,VWS V14.01,2013-11-14 20:57:00,
2013-11-14 15:02:00,67.3,39.5,0.00,North,0,8.1,8.1,36,0.00,,---,0.00,VWS V14.01,2013-11-14 21:02:00,
2013-11-14 15:07:00,66.2,38.5,0.00,North,0,2.9,8.5,36,0.00,,---,0.00,VWS V14.01,2013-11-14 21:07:00,
2013-11-14 15:12:00,66.9,39.1,0.00,North,0,5.8,8.5,36,0.00,,---,0.00,VWS V14.01,2013-11-14 21:12:00,
2013-11-14 15:17:00,67.3,39.5,0.00,North,0,3.8,5.6,36,0.00,,---,0.00,VWS V14.01,2013-11-14 21:17:00,
2013-11-14 15:22:00,66.6,38.8,0.00,North,0,4.0,8.7,36,0.00,,---,0.00,VWS V14.01,2013-11-14 21:22:00,
2013-11-14 15:27:00,66.6,38.1,0.00,North,0,3.4,8.7,35,0.00,,---,0.00,VWS V14.01,2013-11-14 21:27:00,
2013-11-14 15:32:00,66.6,38.8,0.00,North,0,4.0,5.8,36,0.00,,---,0.00,VWS V14.01,2013-11-14 21:32:00,
2013-11-14 15:37:00,67.1,39.3,0.00,NW,315,2.5,5.8,36,0.00,,---,0.00,VWS V14.01,2013-11-14 21:37:00,
2013-11-14 15:42:00,66.6,38.1,0.00,North,0,6.0,6.5,35,0.00,,---,0.00,VWS V14.01,2013-11-14 21:42:00,
2013-11-14 15:47:00,65.5,37.9,0.00,North,0,5.8,5.8,36,0.00,,---,0.00,VWS V14.01,2013-11-14 21:47:00,
2013-11-14 15:52:00,65.5,37.9,0.00,North,0,3.4,7.4,36,0.00,,---,0.00,VWS V14.01,2013-11-14 21:52:00,
2013-11-14 15:57:00,65.7,38.0,0.00,North,0,4.3,7.4,36,0.00,,---,0.00,VWS V14.01,2013-11-14 21:57:00,
2013-11-14 16:02:00,65.9,38.2,0.00,North,0,2.9,4.5,36,0.00,,---,0.00,VWS V14.01,2013-11-14 22:02:00,
2013-11-14 16:07:00,67.1,39.3,0.00,NNE,22,0.0,4.5,36,0.00,,---,0.00,VWS V14.01,2013-11-14 22:07:00,
2013-11-14 16:12:00,67.3,38.7,0.00,SE,135,1.3,4.5,35,0.00,,---,0.00,VWS V14.01,2013-11-14 22:12:00,
2013-11-14 16:17:00,67.8,39.2,0.00,East,90,0.0,2.2,35,0.00,,---,0.00,VWS V14.01,2013-11-14 22:17:00,
2013-11-14 16:22:00,67.8,39.2,0.00,NE,45,3.6,4.9,35,0.00,,---,0.00,VWS V14.01,2013-11-14 22:22:00,
2013-11-14 16:27:00,66.4,37.9,0.00,North,0,3.4,4.9,35,0.00,,---,0.00,VWS V14.01,2013-11-14 22:27:00,
2013-11-14 16:32:00,65.1,36.8,0.00,North,0,3.1,4.0,35,0.00,,---,0.00,VWS V14.01,2013-11-14 22:32:00,
2013-11-14 16:37:00,64.8,37.2,0.00,North,0,2.9,4.0,36,0.00,,---,0.00,VWS V14.01,2013-11-14 22:37:00,
2013-11-14 16:42:00,64.2,36.8,0.00,North,0,2.5,4.0,36,0.00,,---,0.00,VWS V14.01,2013-11-14 22:42:00,
2013-11-14 16:47:00,64.2,36.8,0.00,North,0,2.0,2.2,36,0.00,,---,0.00,VWS V14.01,2013-11-14 22:47:00,
2013-11-14 16:52:00,63.9,36.4,0.00,North,0,2.0,2.5,36,0.00,,---,0.00,VWS V14.01,2013-11-14 22:52:00,
2013-11-14 16:57:00,61.7,34.5,0.00,North,0,2.7,2.7,36,0.00,,---,0.00,VWS V14.01,2013-11-14 22:57:00,
2013-11-14 17:02:00,59.7,33.4,0.00,North,0,2.5,2.9,37,0.00,,---,0.00,VWS V14.01,2013-11-14 23:02:00,
2013-11-14 17:07:00,58.3,32.2,0.00,North,0,2.2,2.9,37,0.00,,---,0.00,VWS V14.01,2013-11-14 23:07:00,
2013-11-14 17:12:00,57.0,31.7,0.00,North,0,2.5,2.9,38,0.00,,---,0.00,VWS V14.01,2013-11-14 23:12:00,
2013-11-14 17:17:00,56.3,31.1,0.00,North,0,2.7,2.7,38,0.00,,---,0.00,VWS V14.01,2013-11-14 23:17:00,
2013-11-14 17:22:00,54.2,29.8,0.00,NE,45,2.5,3.6,39,0.00,,---,0.00,VWS V14.01,2013-11-14 23:22:00,
2013-11-14 17:27:00,53.1,28.8,0.00,NE,45,2.5,3.6,39,0.00,,---,0.00,VWS V14.01,2013-11-14 23:27:00,
2013-11-14 17:32:00,52.4,28.8,0.00,NE,45,2.7,3.1,40,0.00,,---,0.00,VWS V14.01,2013-11-14 23:32:00,
2013-11-14 17:37:00,51.8,28.9,0.00,NE,45,2.9,3.1,41,0.00,,---,0.00,VWS V14.01,2013-11-14 23:37:00,
2013-11-14 17:42:00,51.1,28.2,0.00,NE,45,0.0,3.1,41,0.00,,---,0.00,VWS V14.01,2013-11-14 23:42:00,
2013-11-14 17:47:00,50.2,28.0,0.00,NE,45,0.0,0.0,42,0.00,,---,0.00,VWS V14.01,2013-11-14 23:47:00,
2013-11-14 17:52:00,50.0,29.0,0.00,NE,45,0.0,0.0,44,0.00,,---,0.00,VWS V14.01,2013-11-14 23:52:00,
2013-11-14 17:57:00,49.5,29.0,0.00,NE,45,0.0,0.0,45,0.00,,---,0.00,VWS V14.01,2013-11-14 23:57:00,
2013-11-14 18:02:00,49.3,28.9,0.00,NE,45,0.0,0.0,45,0.00,,---,0.00,VWS V14.01,2013-11-15 00:02:00,
2013-11-14 18:07:00,48.8,28.4,0.00,ESE,112,0.0,1.3,45,0.00,,---,0.00,VWS V14.01,2013-11-15 00:07:00,
2013-11-14 18:12:00,48.2,28.4,0.00,ESE,112,1.1,1.6,46,0.00,,---,0.00,VWS V14.01,2013-11-15 00:12:00,
2013-11-14 18:17:00,48.0,29.3,0.00,ESE,112,0.0,0.0,48,0.00,,---,0.00,VWS V14.01,2013-11-15 00:17:00,
2013-11-14 18:22:00,47.5,28.8,0.00,East,90,2.0,2.0,48,0.00,,---,0.00,VWS V14.01,2013-11-15 00:22:00,
2013-11-14 18:27:00,47.1,29.0,0.00,East,90,2.7,2.9,49,0.00,,---,0.00,VWS V14.01,2013-11-15 00:27:00,
2013-11-14 18:32:00,47.0,28.8,0.00,East,90,2.0,2.0,49,0.00,,---,0.00,VWS V14.01,2013-11-15 00:32:00,
2013-11-14 18:37:00,46.8,28.6,0.00,East,90,2.0,2.5,49,0.00,,---,0.00,VWS V14.01,2013-11-15 00:37:00,
2013-11-14 18:42:00,46.4,28.8,0.00,East,90,0.0,2.5,50,0.00,,---,0.00,VWS V14.01,2013-11-15 00:42:00,
2013-11-14 18:47:00,45.9,28.3,0.00,East,90,0.0,0.0,50,0.00,,---,0.00,VWS V14.01,2013-11-15 00:47:00,
2013-11-14 18:52:00,44.4,27.5,0.00,NW,315,3.6,3.6,51,0.00,,---,0.00,VWS V14.01,2013-11-15 00:52:00,
2013-11-14 18:57:00,43.5,27.1,0.00,NW,315,2.2,3.6,52,0.00,,---,0.00,VWS V14.01,2013-11-15 00:57:00,
2013-11-14 19:02:00,43.4,27.4,0.00,NW,315,0.0,1.3,53,0.00,,---,0.00,VWS V14.01,2013-11-15 01:02:00,
2013-11-14 19:07:00,43.5,28.5,0.00,NW,315,2.2,2.5,55,0.00,,---,0.00,VWS V14.01,2013-11-15 01:07:00,
2013-11-14 19:12:00,43.4,28.3,0.00,NNE,22,2.7,3.1,55,0.00,,---,0.00,VWS V14.01,2013-11-15 01:12:00,
2013-11-14 19:17:00,43.0,28.0,0.00,NNE,22,1.1,2.5,55,0.00,,---,0.00,VWS V14.01,2013-11-15 01:17:00,
2013-11-14 19:22:00,41.9,27.0,0.00,NNE,22,0.0,2.5,55,0.00,,---,0.00,VWS V14.01,2013-11-15 01:22:00,
2013-11-14 19:27:00,41.2,27.1,0.00,NW,315,3.1,4.0,57,0.00,,---,0.00,VWS V14.01,2013-11-15 01:27:00,
2013-11-14 19:32:00,40.7,27.5,0.00,NW,315,2.5,3.4,59,0.00,,---,0.00,VWS V14.01,2013-11-15 01:32:00,
2013-11-14 19:37:00,40.7,29.1,0.00,NW,315,2.9,3.4,63,0.00,,---,0.00,VWS V14.01,2013-11-15 01:37:00,
2013-11-14 19:42:00,40.5,28.9,0.00,NW,315,2.2,3.4,63,0.00,,---,0.00,VWS V14.01,2013-11-15 01:42:00,
2013-11-14 19:47:00,40.8,30.7,0.00,North,0,3.4,3.4,67,0.00,,---,0.00,VWS V14.01,2013-11-15 01:47:00,
2013-11-14 19:52:00,40.8,30.7,0.00,South,180,2.0,3.6,67,0.00,,---,0.00,VWS V14.01,2013-11-15 01:52:00,
2013-11-14 19:57:00,41.0,31.3,0.00,North,0,3.1,3.6,68,0.00,,---,0.00,VWS V14.01,2013-11-15 01:57:00,
2013-11-14 20:02:00,41.2,31.5,0.00,North,0,2.9,3.1,68,0.00,,---,0.00,VWS V14.01,2013-11-15 02:02:00,
2013-11-14 20:07:00,41.0,30.5,0.00,North,0,2.0,3.1,66,0.00,,---,0.00,VWS V14.01,2013-11-15 02:07:00,
2013-11-14 20:12:00,41.2,31.1,0.00,WNW,292,2.7,3.1,67,0.00,,---,0.00,VWS V14.01,2013-11-15 02:12:00,
2013-11-14 20:17:00,39.9,28.8,0.00,NW,315,2.5,2.5,64,0.00,,---,0.00,VWS V14.01,2013-11-15 02:17:00,
2013-11-14 20:22:00,39.2,28.8,0.00,NW,315,1.1,2.7,66,0.00,,---,0.00,VWS V14.01,2013-11-15 02:22:00,
2013-11-14 20:27:00,38.7,29.0,0.00,NW,315,0.0,2.7,68,0.00,,---,0.00,VWS V14.01,2013-11-15 02:27:00,
2013-11-14 20:32:00,38.5,28.5,0.00,NW,315,0.0,0.0,67,0.00,,---,0.00,VWS V14.01,2013-11-15 02:32:00,
2013-11-14 20:37:00,37.6,27.3,0.00,NW,315,0.0,0.0,66,0.00,,---,0.00,VWS V14.01,2013-11-15 02:37:00,
2013-11-14 20:42:00,37.6,29.1,0.00,NW,315,0.0,1.3,71,0.00,,---,0.00,VWS V14.01,2013-11-15 02:42:00,
2013-11-14 20:47:00,37.4,27.8,0.00,NW,315,0.0,0.0,68,0.00,,---,0.00,VWS V14.01,2013-11-15 02:47:00,
2013-11-14 20:52:00,37.2,28.4,0.00,NW,315,0.0,0.0,70,0.00,,---,0.00,VWS V14.01,2013-11-15 02:52:00,
2013-11-14 20:57:00,37.1,28.2,0.00,NW,315,0.0,0.0,70,0.00,,---,0.00,VWS V14.01,2013-11-15 02:57:00,
2013-11-14 21:02:00,37.1,28.9,0.00,NW,315,0.0,0.0,72,0.00,,---,0.00,VWS V14.01,2013-11-15 03:02:00,
2013-11-14 21:07:00,36.9,29.0,0.00,NW,315,0.0,0.0,73,0.00,,---,0.00,VWS V14.01,2013-11-15 03:07:00,
2013-11-14 21:12:00,36.5,28.0,0.00,NW,315,0.0,0.0,71,0.00,,---,0.00,VWS V14.01,2013-11-15 03:12:00,
2013-11-14 21:17:00,36.5,28.4,0.00,NW,315,0.0,1.1,72,0.00,,---,0.00,VWS V14.01,2013-11-15 03:17:00,
2013-11-14 21:22:00,36.5,28.7,0.00,NW,315,0.0,1.1,73,0.00,,---,0.00,VWS V14.01,2013-11-15 03:22:00,
2013-11-14 21:27:00,36.7,29.2,0.00,NW,315,2.7,2.7,74,0.00,,---,0.00,VWS V14.01,2013-11-15 03:27:00,
2013-11-14 21:32:00,36.9,30.7,0.00,NNW,338,2.7,2.9,78,0.00,,---,0.00,VWS V14.01,2013-11-15 03:32:00,
2013-11-14 21:37:00,37.4,32.1,0.00,NNW,338,3.1,3.6,81,0.00,,---,0.00,VWS V14.01,2013-11-15 03:37:00,
2013-11-14 21:42:00,38.0,33.0,0.00,NW,315,2.2,3.6,82,0.00,,---,0.00,VWS V14.01,2013-11-15 03:42:00,
2013-11-14 21:47:00,38.1,32.5,0.00,NW,315,2.0,2.0,80,0.00,,---,0.00,VWS V14.01,2013-11-15 03:47:00,
2013-11-14 21:52:00,38.3,32.4,0.00,NW,315,0.0,2.0,79,0.00,,---,0.00,VWS V14.01,2013-11-15 03:52:00,
2013-11-14 21:57:00,38.1,31.9,0.00,NW,315,2.0,2.0,78,0.00,,---,0.00,VWS V14.01,2013-11-15 03:57:00,
2013-11-14 22:00:00,34.9,29.1,0.00,NW,315,2.5,2.5,79,0.00,,---,0.00,VWS V14.01,2013-11-15 04:00:00,
2013-11-14 22:01:00,34.9,29.1,0.00,NW,315,2.7,2.7,79,0.00,,---,0.00,VWS V14.01,2013-11-15 04:01:00,
2013-11-14 22:02:00,38.1,31.9,0.00,NW,315,2.5,2.5,78,0.00,,---,0.00,VWS V14.01,2013-11-15 04:02:00,
2013-11-14 22:03:00,34.9,29.4,0.00,NW,315,3.1,3.1,80,0.00,,---,0.00,VWS V14.01,2013-11-15 04:03:00,
2013-11-14 22:04:00,34.9,29.4,0.00,NW,315,2.9,3.1,80,0.00,,---,0.00,VWS V14.01,2013-11-15 04:04:00,
2013-11-14 22:05:00,35.1,30.5,0.00,NW,315,2.5,3.6,83,0.00,,---,0.00,VWS V14.01,2013-11-15 04:05:00,
2013-11-14 22:06:00,35.1,30.7,0.00,North,0,3.1,3.6,84,0.00,,---,0.00,VWS V14.01,2013-11-15 04:06:00,
2013-11-14 22:07:00,38.1,31.9,0.00,NW,315,0.0,2.5,78,0.00,,---,0.00,VWS V14.01,2013-11-15 04:07:00,
2013-11-14 22:08:00,35.1,31.0,0.00,NW,315,2.9,3.6,85,0.00,,---,0.00,VWS V14.01,2013-11-15 04:08:00,
2013-11-14 22:09:00,35.1,31.3,0.00,NW,315,3.1,3.6,86,0.00,,---,0.00,VWS V14.01,2013-11-15 04:09:00,
2013-11-14 22:12:00,37.8,31.2,0.00,NW,315,2.0,2.5,77,0.00,,---,0.00,VWS V14.01,2013-11-15 04:12:00,
2013-11-14 22:17:00,37.8,31.5,0.00,NW,315,2.5,2.5,78,0.00,,---,0.00,VWS V14.01,2013-11-15 04:17:00,
2013-11-14 22:22:00,38.0,32.0,0.00,NW,315,0.0,2.5,79,0.00,,---,0.00,VWS V14.01,2013-11-15 04:22:00,
2013-11-14 22:27:00,37.8,31.2,0.00,NW,315,0.0,2.5,77,0.00,,---,0.00,VWS V14.01,2013-11-15 04:27:00,
2013-11-14 22:32:00,36.9,30.0,0.00,NW,315,0.0,0.0,76,0.00,,---,0.00,VWS V14.01,2013-11-15 04:32:00,
2013-11-14 22:37:00,36.5,29.4,0.00,ENE,68,1.6,2.0,75,0.00,,---,0.00,VWS V14.01,2013-11-15 04:37:00,
2013-11-14 22:42:00,36.5,29.4,0.00,ENE,68,0.0,2.0,75,0.00,,---,0.00,VWS V14.01,2013-11-15 04:42:00,
2013-11-14 22:47:00,35.6,28.8,0.00,ENE,68,1.6,2.7,76,0.00,,---,0.00,VWS V14.01,2013-11-15 04:47:00,
2013-11-14 22:52:00,35.3,28.5,0.00,ENE,68,0.0,2.7,76,0.00,,---,0.00,VWS V14.01,2013-11-15 04:52:00,
2013-11-14 22:57:00,35.1,28.3,0.00,NW,315,1.3,2.7,76,0.00,,---,0.00,VWS V14.01,2013-11-15 04:57:00,
2013-11-14 23:04:00,35.1,30.5,0.00,North,0,3.6,3.6,83,0.00,,---,0.00,VWS V14.01,2013-11-15 05:04:00,
2013-11-14 23:09:00,35.1,31.3,0.00,NW,315,3.6,3.6,86,0.00,,---,0.00,VWS V14.01,2013-11-15 05:09:00,
2013-11-14 23:14:00,35.3,32.1,0.00,NW,315,3.6,4.3,88,0.00,,---,0.00,VWS V14.01,2013-11-15 05:14:00,
2013-11-14 23:19:00,35.6,32.7,0.00,NW,315,3.4,4.0,89,0.00,,---,0.00,VWS V14.01,2013-11-15 05:19:00,
2013-11-14 23:24:00,35.8,32.9,0.00,NW,315,2.9,4.0,89,0.00,,---,0.00,VWS V14.01,2013-11-15 05:24:00,
2013-11-14 23:29:00,36.0,32.8,0.00,NW,315,2.0,4.0,88,0.00,,---,0.00,VWS V14.01,2013-11-15 05:29:00,
2013-11-14 23:34:00,36.2,32.7,0.00,NW,315,2.0,2.5,87,0.00,,---,0.00,VWS V14.01,2013-11-15 05:34:00,
2013-11-14 23:39:00,36.0,32.2,0.00,NW,315,0.9,2.5,86,0.00,,---,0.00,VWS V14.01,2013-11-15 05:39:00,
2013-11-14 23:44:00,36.3,32.3,0.00,NW,315,0.0,2.5,85,0.00,,---,0.00,VWS V14.01,2013-11-15 05:44:00,
2013-11-14 23:49:00,36.3,32.3,0.00,West,270,0.0,2.2,85,0.00,,---,0.00,VWS V14.01,2013-11-15 05:49:00,
2013-11-14 23:54:00,36.3,32.0,0.00,WSW,248,0.0,2.2,84,0.00,,---,0.00,VWS V14.01,2013-11-15 05:54:00,
2013-11-14 23:59:00,35.8,31.1,0.00,WSW,248,0.0,2.2,83,0.00,,---,0.00,VWS V14.01,2013-11-15 05:59:00,